createdAt,value
2022-10-22T00:00:02.259Z,21.34
2022-10-22T00:00:12.298Z,21.32
2022-10-22T00:00:22.335Z,21.32
2022-10-22T00:00:32.370Z,21.32
2022-10-22T00:00:42.399Z,21.32
2022-10-22T00:01:02.442Z,21.34
2022-10-22T00:01:12.483Z,21.32
2022-10-22T00:01:22.607Z,21.32
2022-10-22T00:01:32.648Z,21.30
2022-10-22T00:01:42.694Z,21.32
2022-10-22T00:01:52.750Z,21.30
2022-10-22T00:02:02.808Z,21.29
2022-10-22T00:02:12.853Z,21.29
2022-10-22T00:02:22.942Z,21.27
2022-10-22T00:02:33.011Z,21.29
2022-10-22T00:02:43.184Z,21.29
2022-10-22T00:02:53.203Z,21.26
2022-10-22T00:03:03.288Z,21.29
2022-10-22T00:03:13.239Z,21.29
2022-10-22T00:03:23.289Z,21.27
2022-10-22T00:03:33.323Z,21.29
2022-10-22T00:03:43.360Z,21.29
2022-10-22T00:03:53.390Z,21.29
2022-10-22T00:04:03.433Z,21.29
2022-10-22T00:04:13.477Z,21.27
2022-10-22T00:04:23.573Z,21.27
2022-10-22T00:04:35.445Z,21.27
2022-10-22T00:04:53.941Z,21.27
2022-10-22T00:05:03.989Z,21.27
2022-10-22T00:05:14.030Z,21.29
2022-10-22T00:05:24.093Z,21.29
2022-10-22T00:05:34.130Z,21.29
2022-10-22T00:05:44.177Z,21.30
2022-10-22T00:05:54.221Z,21.30
2022-10-22T00:06:04.289Z,21.30
2022-10-22T00:06:14.331Z,21.30
2022-10-22T00:06:24.393Z,21.32
2022-10-22T00:06:34.430Z,21.32
2022-10-22T00:06:44.480Z,21.30
2022-10-22T00:06:54.515Z,21.30
2022-10-22T00:07:04.600Z,21.32
2022-10-22T00:07:14.641Z,21.32
2022-10-22T00:07:24.685Z,21.30
2022-10-22T00:07:34.724Z,21.32
2022-10-22T00:07:44.784Z,21.30
2022-10-22T00:07:54.812Z,21.30
2022-10-22T00:08:04.844Z,21.29
2022-10-22T00:08:14.887Z,21.29
2022-10-22T00:08:24.930Z,21.29
2022-10-22T00:08:35.018Z,21.30
2022-10-22T00:08:45.145Z,21.29
2022-10-22T00:08:55.275Z,21.27
2022-10-22T00:09:05.238Z,21.29
2022-10-22T00:09:15.361Z,21.27
2022-10-22T00:09:25.432Z,21.26
2022-10-22T00:09:35.478Z,21.26
2022-10-22T00:09:45.521Z,21.26
2022-10-22T00:09:55.591Z,21.26
2022-10-22T00:10:05.630Z,21.23
2022-10-22T00:10:15.678Z,21.24
2022-10-22T00:10:25.728Z,21.24
2022-10-22T00:10:35.757Z,21.24
2022-10-22T00:10:45.789Z,21.24
2022-10-22T00:10:55.843Z,21.24
2022-10-22T00:11:05.880Z,21.24
2022-10-22T00:11:15.915Z,21.23
2022-10-22T00:11:25.954Z,21.24
2022-10-22T00:11:35.995Z,21.24
2022-10-22T00:11:46.041Z,21.23
2022-10-22T00:11:56.089Z,21.24
2022-10-22T00:12:06.122Z,21.23
2022-10-22T00:12:16.153Z,21.23
2022-10-22T00:12:26.185Z,21.23
2022-10-22T00:12:36.231Z,21.21
2022-10-22T00:12:46.279Z,21.23
2022-10-22T00:12:56.322Z,21.20
2022-10-22T00:13:06.362Z,21.21
2022-10-22T00:13:16.413Z,21.20
2022-10-22T00:13:26.456Z,21.24
2022-10-22T00:13:36.549Z,21.23
2022-10-22T00:13:56.619Z,21.21
2022-10-22T00:14:06.649Z,21.24
2022-10-22T00:14:16.704Z,21.23
2022-10-22T00:14:26.745Z,21.23
2022-10-22T00:14:36.795Z,21.23
2022-10-22T00:14:46.826Z,21.23
2022-10-22T00:14:56.934Z,21.24
2022-10-22T00:15:06.976Z,21.24
2022-10-22T00:15:17.031Z,21.23
2022-10-22T00:15:27.072Z,21.23
2022-10-22T00:15:37.115Z,21.23
2022-10-22T00:15:57.192Z,21.23
2022-10-22T00:16:07.234Z,21.23
2022-10-22T00:16:17.303Z,21.23
2022-10-22T00:16:27.338Z,21.24
2022-10-22T00:16:37.387Z,21.23
2022-10-22T00:16:57.455Z,21.23
2022-10-22T00:17:11.200Z,21.24
2022-10-22T00:17:17.585Z,21.23
2022-10-22T00:17:27.623Z,21.26
2022-10-22T00:17:38.046Z,21.27
2022-10-22T00:17:57.724Z,21.27
2022-10-22T00:18:07.761Z,21.27
2022-10-22T00:18:17.803Z,21.26
2022-10-22T00:18:27.833Z,21.27
2022-10-22T00:18:37.882Z,21.29
2022-10-22T00:18:57.962Z,21.29
2022-10-22T00:19:08.008Z,21.29
2022-10-22T00:19:18.052Z,21.29
2022-10-22T00:19:28.080Z,21.29
2022-10-22T00:19:38.128Z,21.27
2022-10-22T00:19:58.175Z,21.29
2022-10-22T00:20:08.224Z,21.29
2022-10-22T00:20:18.264Z,21.26
2022-10-22T00:20:28.309Z,21.29
2022-10-22T00:20:38.356Z,21.27
2022-10-22T00:20:58.425Z,21.27
2022-10-22T00:21:08.461Z,21.27
2022-10-22T00:21:18.494Z,21.29
2022-10-22T00:21:28.534Z,21.29
2022-10-22T00:21:38.579Z,21.27
2022-10-22T00:21:58.626Z,21.27
2022-10-22T00:22:08.667Z,21.27
2022-10-22T00:22:18.729Z,21.27
2022-10-22T00:22:28.776Z,21.27
2022-10-22T00:22:38.905Z,21.27
2022-10-22T00:22:58.884Z,21.27
2022-10-22T00:23:08.948Z,21.27
2022-10-22T00:23:18.989Z,21.27
2022-10-22T00:23:29.030Z,21.27
2022-10-22T00:23:39.069Z,21.29
2022-10-22T00:23:59.130Z,21.27
2022-10-22T00:24:09.173Z,21.27
2022-10-22T00:24:19.227Z,21.24
2022-10-22T00:24:29.261Z,21.26
2022-10-22T00:24:39.300Z,21.24
2022-10-22T00:24:59.382Z,21.24
2022-10-22T00:25:09.426Z,21.24
2022-10-22T00:25:19.488Z,21.24
2022-10-22T00:25:29.527Z,21.23
2022-10-22T00:25:39.638Z,21.24
2022-10-22T00:25:59.694Z,21.24
2022-10-22T00:26:09.737Z,21.23
2022-10-22T00:26:19.783Z,21.21
2022-10-22T00:26:29.827Z,21.21
2022-10-22T00:26:39.877Z,21.21
2022-10-22T00:26:59.976Z,21.20
2022-10-22T00:27:10.018Z,21.23
2022-10-22T00:27:20.049Z,21.21
2022-10-22T00:27:30.080Z,21.20
2022-10-22T00:27:40.276Z,21.20
2022-10-22T00:28:00.175Z,21.24
2022-10-22T00:28:10.228Z,21.23
2022-10-22T00:28:20.287Z,21.23
2022-10-22T00:28:30.332Z,21.24
2022-10-22T00:28:40.356Z,21.23
2022-10-22T00:29:00.432Z,21.26
2022-10-22T00:29:10.475Z,21.24
2022-10-22T00:29:20.531Z,21.27
2022-10-22T00:29:30.578Z,21.26
2022-10-22T00:29:40.609Z,21.27
2022-10-22T00:30:00.664Z,21.27
2022-10-22T00:30:10.714Z,21.27
2022-10-22T00:30:20.765Z,21.27
2022-10-22T00:30:30.805Z,21.27
2022-10-22T00:30:40.847Z,21.29
2022-10-22T00:31:00.894Z,21.27
2022-10-22T00:31:10.938Z,21.27
2022-10-22T00:31:20.988Z,21.27
2022-10-22T00:31:31.038Z,21.27
2022-10-22T00:31:41.082Z,21.26
2022-10-22T00:32:01.133Z,21.26
2022-10-22T00:32:11.168Z,21.29
2022-10-22T00:32:21.206Z,21.27
2022-10-22T00:32:31.247Z,21.26
2022-10-22T00:32:41.642Z,21.26
2022-10-22T00:33:01.343Z,21.24
2022-10-22T00:33:11.441Z,21.24
2022-10-22T00:33:21.470Z,21.26
2022-10-22T00:33:31.518Z,21.24
2022-10-22T00:33:41.564Z,21.23
2022-10-22T00:34:01.616Z,21.26
2022-10-22T00:34:11.640Z,21.24
2022-10-22T00:34:21.706Z,21.24
2022-10-22T00:34:31.743Z,21.24
2022-10-22T00:34:41.795Z,21.26
2022-10-22T00:35:01.855Z,21.26
2022-10-22T00:35:11.884Z,21.24
2022-10-22T00:35:21.933Z,21.26
2022-10-22T00:35:31.990Z,21.24
2022-10-22T00:35:42.032Z,21.26
2022-10-22T00:36:02.125Z,21.26
2022-10-22T00:36:12.179Z,21.29
2022-10-22T00:36:22.233Z,21.30
2022-10-22T00:36:32.271Z,21.27
2022-10-22T00:36:42.325Z,21.27
2022-10-22T00:37:02.368Z,21.27
2022-10-22T00:37:12.410Z,21.29
2022-10-22T00:37:22.461Z,21.29
2022-10-22T00:37:32.547Z,21.30
2022-10-22T00:37:42.581Z,21.29
2022-10-22T00:37:52.620Z,21.29
2022-10-22T00:38:02.664Z,21.27
2022-10-22T00:38:12.722Z,21.29
2022-10-22T00:38:22.779Z,21.29
2022-10-22T00:38:32.827Z,21.29
2022-10-22T00:38:42.868Z,21.29
2022-10-22T00:38:52.910Z,21.29
2022-10-22T00:39:02.952Z,21.29
2022-10-22T00:39:13.003Z,21.30
2022-10-22T00:39:23.053Z,21.27
2022-10-22T00:39:33.086Z,21.30
2022-10-22T00:39:43.129Z,21.29
2022-10-22T00:39:53.168Z,21.29
2022-10-22T00:40:03.212Z,21.29
2022-10-22T00:40:13.255Z,21.30
2022-10-22T00:40:23.313Z,21.30
2022-10-22T00:40:33.360Z,21.30
2022-10-22T00:40:43.405Z,21.32
2022-10-22T00:40:53.462Z,21.30
2022-10-22T00:41:03.524Z,21.32
2022-10-22T00:41:13.551Z,21.32
2022-10-22T00:41:23.592Z,21.34
2022-10-22T00:41:33.631Z,21.32
2022-10-22T00:41:43.680Z,21.32
2022-10-22T00:41:53.744Z,21.30
2022-10-22T00:42:03.779Z,21.32
2022-10-22T00:42:13.801Z,21.30
2022-10-22T00:42:23.852Z,21.30
2022-10-22T00:42:33.916Z,21.30
2022-10-22T00:42:44.098Z,21.29
2022-10-22T00:42:53.994Z,21.27
2022-10-22T00:43:04.049Z,21.29
2022-10-22T00:43:14.088Z,21.27
2022-10-22T00:43:24.124Z,21.26
2022-10-22T00:43:34.172Z,21.29
2022-10-22T00:43:44.220Z,21.27
2022-10-22T00:43:54.273Z,21.27
2022-10-22T00:44:04.311Z,21.26
2022-10-22T00:44:14.351Z,21.26
2022-10-22T00:44:24.384Z,21.26
2022-10-22T00:44:34.430Z,21.24
2022-10-22T00:44:44.472Z,21.24
2022-10-22T00:44:54.518Z,21.24
2022-10-22T00:45:04.578Z,21.24
2022-10-22T00:45:14.615Z,21.26
2022-10-22T00:45:24.650Z,21.24
2022-10-22T00:45:34.681Z,21.24
2022-10-22T00:45:44.730Z,21.24
2022-10-22T00:45:54.767Z,21.24
2022-10-22T00:46:04.822Z,21.23
2022-10-22T00:46:14.857Z,21.23
2022-10-22T00:46:24.901Z,21.23
2022-10-22T00:46:34.931Z,21.23
2022-10-22T00:46:44.975Z,21.23
2022-10-22T00:46:55.020Z,21.21
2022-10-22T00:47:05.058Z,21.24
2022-10-22T00:47:15.099Z,21.24
2022-10-22T00:47:25.135Z,21.23
2022-10-22T00:47:35.171Z,21.23
2022-10-22T00:47:45.201Z,21.23
2022-10-22T00:47:55.253Z,21.24
2022-10-22T00:48:05.298Z,21.24
2022-10-22T00:48:15.340Z,21.23
2022-10-22T00:48:25.383Z,21.24
2022-10-22T00:48:35.426Z,21.24
2022-10-22T00:48:45.481Z,21.26
2022-10-22T00:48:55.518Z,21.27
2022-10-22T00:49:05.567Z,21.26
2022-10-22T00:49:15.601Z,21.26
2022-10-22T00:49:25.650Z,21.27
2022-10-22T00:49:35.699Z,21.29
2022-10-22T00:49:45.737Z,21.26
2022-10-22T00:49:55.820Z,21.29
2022-10-22T00:50:05.907Z,21.26
2022-10-22T00:50:15.955Z,21.27
2022-10-22T00:50:25.992Z,21.26
2022-10-22T00:50:36.034Z,21.27
2022-10-22T00:50:46.074Z,21.27
2022-10-22T00:50:56.127Z,21.27
2022-10-22T00:51:06.176Z,21.26
2022-10-22T00:51:16.236Z,21.26
2022-10-22T00:51:26.271Z,21.26
2022-10-22T00:51:36.309Z,21.26
2022-10-22T00:51:56.374Z,21.26
2022-10-22T00:52:06.417Z,21.24
2022-10-22T00:52:16.449Z,21.24
2022-10-22T00:52:26.492Z,21.24
2022-10-22T00:52:36.529Z,21.26
2022-10-22T00:52:56.570Z,21.24
2022-10-22T00:53:06.620Z,21.26
2022-10-22T00:53:16.666Z,21.26
2022-10-22T00:53:26.700Z,21.24
2022-10-22T00:53:36.740Z,21.26
2022-10-22T00:53:56.787Z,21.24
2022-10-22T00:54:06.841Z,21.23
2022-10-22T00:54:16.887Z,21.24
2022-10-22T00:54:26.925Z,21.24
2022-10-22T00:54:36.962Z,21.24
2022-10-22T00:54:57.027Z,21.24
2022-10-22T00:55:07.085Z,21.23
2022-10-22T00:55:17.131Z,21.26
2022-10-22T00:55:27.172Z,21.24
2022-10-22T00:55:37.201Z,21.26
2022-10-22T00:55:57.358Z,21.26
2022-10-22T00:56:07.422Z,21.24
2022-10-22T00:56:17.462Z,21.24
2022-10-22T00:56:27.514Z,21.24
2022-10-22T00:56:37.570Z,21.24
2022-10-22T00:56:57.622Z,21.23
2022-10-22T00:57:07.667Z,21.23
2022-10-22T00:57:17.699Z,21.23
2022-10-22T00:57:27.724Z,21.23
2022-10-22T00:57:37.764Z,21.21
2022-10-22T00:57:57.824Z,21.20
2022-10-22T00:58:07.854Z,21.20
2022-10-22T00:58:17.890Z,21.19
2022-10-22T00:58:27.936Z,21.19
2022-10-22T00:58:37.976Z,21.19
2022-10-22T00:58:58.082Z,21.19
2022-10-22T00:59:18.174Z,21.20
2022-10-22T00:59:28.218Z,21.20
2022-10-22T00:59:38.261Z,21.21
2022-10-22T00:59:58.339Z,21.21
2022-10-22T01:00:08.388Z,21.21
2022-10-22T01:00:18.416Z,21.21
2022-10-22T01:00:28.534Z,21.21
2022-10-22T01:00:38.527Z,21.21
2022-10-22T01:00:58.708Z,21.21
2022-10-22T01:01:08.753Z,21.21
2022-10-22T01:01:18.776Z,21.21
2022-10-22T01:01:28.814Z,21.21
2022-10-22T01:01:38.887Z,21.21
2022-10-22T01:01:58.903Z,21.21
2022-10-22T01:02:08.955Z,21.23
2022-10-22T01:02:18.990Z,21.23
2022-10-22T01:02:29.043Z,21.23
2022-10-22T01:02:39.445Z,21.23
2022-10-22T01:02:59.230Z,21.21
2022-10-22T01:03:09.260Z,21.24
2022-10-22T01:03:19.301Z,21.23
2022-10-22T01:03:29.343Z,21.24
2022-10-22T01:03:39.390Z,21.24
2022-10-22T01:03:59.437Z,21.26
2022-10-22T01:04:09.493Z,21.26
2022-10-22T01:04:19.523Z,21.24
2022-10-22T01:04:29.555Z,21.26
2022-10-22T01:04:39.578Z,21.24
2022-10-22T01:04:59.626Z,21.24
2022-10-22T01:05:09.664Z,21.24
2022-10-22T01:05:19.707Z,21.24
2022-10-22T01:05:29.747Z,21.24
2022-10-22T01:05:39.787Z,21.24
2022-10-22T01:05:59.839Z,21.26
2022-10-22T01:06:09.873Z,21.26
2022-10-22T01:06:19.915Z,21.26
2022-10-22T01:06:29.971Z,21.26
2022-10-22T01:06:40.022Z,21.24
2022-10-22T01:07:00.085Z,21.26
2022-10-22T01:07:10.119Z,21.27
2022-10-22T01:07:20.145Z,21.26
2022-10-22T01:07:30.192Z,21.27
2022-10-22T01:07:40.217Z,21.27
2022-10-22T01:08:00.369Z,21.26
2022-10-22T01:08:20.506Z,21.27
2022-10-22T01:08:30.590Z,21.24
2022-10-22T01:08:40.740Z,21.23
2022-10-22T01:09:00.829Z,21.23
2022-10-22T01:09:10.943Z,21.23
2022-10-22T01:09:20.987Z,21.23
2022-10-22T01:09:31.018Z,21.23
2022-10-22T01:09:41.055Z,21.20
2022-10-22T01:10:01.106Z,21.20
2022-10-22T01:10:11.155Z,21.21
2022-10-22T01:10:21.211Z,21.21
2022-10-22T01:10:31.238Z,21.20
2022-10-22T01:10:41.307Z,21.21
2022-10-22T01:11:01.376Z,21.23
2022-10-22T01:11:11.420Z,21.21
2022-10-22T01:11:21.477Z,21.21
2022-10-22T01:11:31.527Z,21.20
2022-10-22T01:11:41.571Z,21.20
2022-10-22T01:12:01.621Z,21.21
2022-10-22T01:12:11.677Z,21.21
2022-10-22T01:12:21.708Z,21.20
2022-10-22T01:12:31.742Z,21.21
2022-10-22T01:12:42.340Z,21.21
2022-10-22T01:13:01.837Z,21.20
2022-10-22T01:13:11.866Z,21.21
2022-10-22T01:13:21.913Z,21.20
2022-10-22T01:13:31.958Z,21.21
2022-10-22T01:13:41.997Z,21.20
2022-10-22T01:14:02.054Z,21.21
2022-10-22T01:14:12.085Z,21.23
2022-10-22T01:14:22.127Z,21.21
2022-10-22T01:14:32.166Z,21.20
2022-10-22T01:14:42.206Z,21.21
2022-10-22T01:15:02.269Z,21.21
2022-10-22T01:15:12.303Z,21.20
2022-10-22T01:15:22.349Z,21.19
2022-10-22T01:15:32.389Z,21.19
2022-10-22T01:15:42.432Z,21.19
2022-10-22T01:16:02.486Z,21.17
2022-10-22T01:16:12.507Z,21.19
2022-10-22T01:16:22.555Z,21.16
2022-10-22T01:16:32.603Z,21.19
2022-10-22T01:16:42.641Z,21.17
2022-10-22T01:16:52.669Z,21.17
2022-10-22T01:17:02.707Z,21.17
2022-10-22T01:17:12.789Z,21.17
2022-10-22T01:17:22.864Z,21.16
2022-10-22T01:17:32.896Z,21.16
2022-10-22T01:17:43.538Z,21.17
2022-10-22T01:17:52.955Z,21.16
2022-10-22T01:18:02.998Z,21.17
2022-10-22T01:18:13.038Z,21.17
2022-10-22T01:18:23.063Z,21.17
2022-10-22T01:18:33.089Z,21.17
2022-10-22T01:18:43.138Z,21.17
2022-10-22T01:18:53.183Z,21.19
2022-10-22T01:19:03.215Z,21.17
2022-10-22T01:19:13.275Z,21.19
2022-10-22T01:19:23.343Z,21.17
2022-10-22T01:19:33.387Z,21.19
2022-10-22T01:19:43.434Z,21.17
2022-10-22T01:19:53.485Z,21.19
2022-10-22T01:20:03.541Z,21.20
2022-10-22T01:20:13.578Z,21.20
2022-10-22T01:20:23.635Z,21.20
2022-10-22T01:20:33.673Z,21.20
2022-10-22T01:20:43.722Z,21.20
2022-10-22T01:20:53.771Z,21.20
2022-10-22T01:21:03.816Z,21.20
2022-10-22T01:21:13.854Z,21.21
2022-10-22T01:21:23.901Z,21.20
2022-10-22T01:21:33.937Z,21.21
2022-10-22T01:21:44.009Z,21.21
2022-10-22T01:21:54.062Z,21.20
2022-10-22T01:22:04.104Z,21.21
2022-10-22T01:22:14.134Z,21.21
2022-10-22T01:22:24.179Z,21.21
2022-10-22T01:22:34.232Z,21.21
2022-10-22T01:22:44.283Z,21.23
2022-10-22T01:22:54.323Z,21.23
2022-10-22T01:23:04.405Z,21.23
2022-10-22T01:23:14.470Z,21.24
2022-10-22T01:23:24.513Z,21.26
2022-10-22T01:23:34.550Z,21.24
2022-10-22T01:23:44.589Z,21.24
2022-10-22T01:23:54.639Z,21.26
2022-10-22T01:24:04.675Z,21.26
2022-10-22T01:24:14.709Z,21.24
2022-10-22T01:24:24.745Z,21.26
2022-10-22T01:24:34.791Z,21.24
2022-10-22T01:24:44.821Z,21.26
2022-10-22T01:24:54.851Z,21.24
2022-10-22T01:25:04.884Z,21.24
2022-10-22T01:25:14.933Z,21.24
2022-10-22T01:25:24.960Z,21.24
2022-10-22T01:25:35.006Z,21.24
2022-10-22T01:25:45.037Z,21.29
2022-10-22T01:25:55.080Z,21.26
2022-10-22T01:26:05.120Z,21.26
2022-10-22T01:26:15.255Z,21.26
2022-10-22T01:26:25.190Z,21.26
2022-10-22T01:26:35.244Z,21.26
2022-10-22T01:26:45.285Z,21.26
2022-10-22T01:26:55.326Z,21.26
2022-10-22T01:27:05.364Z,21.24
2022-10-22T01:27:15.412Z,21.24
2022-10-22T01:27:25.443Z,21.26
2022-10-22T01:27:35.495Z,21.23
2022-10-22T01:27:55.537Z,21.23
2022-10-22T01:28:05.576Z,21.26
2022-10-22T01:28:15.644Z,21.24
2022-10-22T01:28:25.701Z,21.26
2022-10-22T01:28:35.757Z,21.26
2022-10-22T01:28:55.807Z,21.26
2022-10-22T01:29:05.858Z,21.24
2022-10-22T01:29:15.912Z,21.24
2022-10-22T01:29:25.951Z,21.24
2022-10-22T01:29:36.003Z,21.24
2022-10-22T01:29:56.060Z,21.24
2022-10-22T01:30:06.100Z,21.24
2022-10-22T01:30:16.144Z,21.23
2022-10-22T01:30:26.182Z,21.26
2022-10-22T01:30:36.221Z,21.24
2022-10-22T01:30:56.396Z,21.23
2022-10-22T01:31:06.459Z,21.23
2022-10-22T01:31:16.500Z,21.23
2022-10-22T01:31:26.542Z,21.24
2022-10-22T01:31:36.580Z,21.24
2022-10-22T01:31:56.632Z,21.27
2022-10-22T01:32:06.681Z,21.26
2022-10-22T01:32:16.723Z,21.26
2022-10-22T01:32:26.759Z,21.24
2022-10-22T01:32:36.795Z,21.26
2022-10-22T01:32:56.909Z,21.26
2022-10-22T01:33:06.945Z,21.26
2022-10-22T01:33:17.036Z,21.26
2022-10-22T01:33:27.060Z,21.27
2022-10-22T01:33:37.096Z,21.27
2022-10-22T01:33:57.121Z,21.29
2022-10-22T01:34:07.172Z,21.27
2022-10-22T01:34:17.219Z,21.29
2022-10-22T01:34:27.256Z,21.27
2022-10-22T01:34:37.302Z,21.29
2022-10-22T01:34:57.387Z,21.30
2022-10-22T01:35:07.446Z,21.27
2022-10-22T01:35:17.483Z,21.30
2022-10-22T01:35:27.563Z,21.30
2022-10-22T01:35:37.628Z,21.30
2022-10-22T01:35:57.694Z,21.30
2022-10-22T01:36:07.764Z,21.30
2022-10-22T01:36:17.796Z,21.30
2022-10-22T01:36:27.843Z,21.30
2022-10-22T01:36:37.903Z,21.30
2022-10-22T01:36:57.946Z,21.30
2022-10-22T01:37:07.984Z,21.30
2022-10-22T01:37:18.021Z,21.30
2022-10-22T01:37:28.062Z,21.30
2022-10-22T01:37:38.529Z,21.30
2022-10-22T01:37:58.168Z,21.29
2022-10-22T01:38:08.218Z,21.32
2022-10-22T01:38:18.251Z,21.27
2022-10-22T01:38:28.290Z,21.29
2022-10-22T01:38:38.333Z,21.27
2022-10-22T01:38:58.412Z,21.27
2022-10-22T01:39:08.452Z,21.26
2022-10-22T01:39:18.458Z,21.26
2022-10-22T01:39:28.501Z,21.26
2022-10-22T01:39:38.548Z,21.24
2022-10-22T01:39:58.847Z,21.24
2022-10-22T01:40:08.597Z,21.26
2022-10-22T01:40:18.647Z,21.26
2022-10-22T01:40:28.684Z,21.24
2022-10-22T01:40:38.746Z,21.26
2022-10-22T01:40:58.803Z,21.27
2022-10-22T01:41:08.852Z,21.27
2022-10-22T01:41:18.899Z,21.26
2022-10-22T01:41:28.948Z,21.24
2022-10-22T01:41:39.006Z,21.24
2022-10-22T01:41:59.067Z,21.26
2022-10-22T01:42:09.131Z,21.24
2022-10-22T01:42:19.169Z,21.27
2022-10-22T01:42:29.206Z,21.26
2022-10-22T01:42:39.263Z,21.26
2022-10-22T01:42:59.320Z,21.26
2022-10-22T01:43:09.360Z,21.26
2022-10-22T01:43:19.415Z,21.24
2022-10-22T01:43:29.477Z,21.26
2022-10-22T01:43:39.503Z,21.23
2022-10-22T01:43:59.561Z,21.23
2022-10-22T01:44:09.609Z,21.21
2022-10-22T01:44:19.662Z,21.21
2022-10-22T01:44:29.749Z,21.23
2022-10-22T01:44:39.829Z,21.21
2022-10-22T01:44:59.882Z,21.20
2022-10-22T01:45:09.925Z,21.21
2022-10-22T01:45:19.974Z,21.19
2022-10-22T01:45:30.002Z,21.19
2022-10-22T01:45:40.042Z,21.20
2022-10-22T01:46:00.088Z,21.20
2022-10-22T01:46:10.129Z,21.21
2022-10-22T01:46:20.161Z,21.20
2022-10-22T01:46:30.218Z,21.21
2022-10-22T01:46:40.249Z,21.19
2022-10-22T01:47:00.301Z,21.21
2022-10-22T01:47:10.364Z,21.21
2022-10-22T01:47:20.417Z,21.21
2022-10-22T01:47:30.455Z,21.24
2022-10-22T01:47:40.782Z,21.21
2022-10-22T01:48:00.656Z,21.21
2022-10-22T01:48:10.682Z,21.23
2022-10-22T01:48:20.714Z,21.20
2022-10-22T01:48:30.746Z,21.24
2022-10-22T01:48:40.790Z,21.21
2022-10-22T01:49:00.832Z,21.23
2022-10-22T01:49:10.890Z,21.24
2022-10-22T01:49:20.932Z,21.21
2022-10-22T01:49:30.986Z,21.21
2022-10-22T01:49:41.031Z,21.21
2022-10-22T01:50:01.081Z,21.20
2022-10-22T01:50:11.095Z,21.19
2022-10-22T01:50:21.136Z,21.19
2022-10-22T01:50:31.175Z,21.19
2022-10-22T01:50:41.210Z,21.19
2022-10-22T01:51:01.289Z,21.20
2022-10-22T01:51:11.368Z,21.19
2022-10-22T01:51:21.411Z,21.19
2022-10-22T01:51:31.445Z,21.20
2022-10-22T01:51:41.486Z,21.19
2022-10-22T01:52:01.545Z,21.21
2022-10-22T01:52:11.584Z,21.20
2022-10-22T01:52:21.652Z,21.21
2022-10-22T01:52:31.706Z,21.21
2022-10-22T01:52:41.747Z,21.21
2022-10-22T01:53:01.799Z,21.23
2022-10-22T01:53:11.828Z,21.23
2022-10-22T01:53:21.859Z,21.24
2022-10-22T01:53:31.939Z,21.24
2022-10-22T01:53:42.077Z,21.24
2022-10-22T01:54:02.133Z,21.24
2022-10-22T01:54:12.172Z,21.24
2022-10-22T01:54:22.224Z,21.23
2022-10-22T01:54:32.265Z,21.26
2022-10-22T01:54:42.306Z,21.27
2022-10-22T01:55:02.385Z,21.27
2022-10-22T01:55:12.413Z,21.26
2022-10-22T01:55:22.460Z,21.27
2022-10-22T01:55:32.521Z,21.27
2022-10-22T01:55:42.552Z,21.27
2022-10-22T01:55:52.584Z,21.27
2022-10-22T01:56:02.625Z,21.27
2022-10-22T01:56:12.659Z,21.27
2022-10-22T01:56:22.700Z,21.29
2022-10-22T01:56:32.746Z,21.27
2022-10-22T01:56:42.785Z,21.27
2022-10-22T01:56:52.837Z,21.27
2022-10-22T01:57:02.884Z,21.27
2022-10-22T01:57:12.925Z,21.27
2022-10-22T01:57:22.969Z,21.27
2022-10-22T01:57:33.014Z,21.26
2022-10-22T01:57:43.420Z,21.29
2022-10-22T01:57:53.183Z,21.27
2022-10-22T01:58:03.220Z,21.27
2022-10-22T01:58:13.257Z,21.27
2022-10-22T01:58:23.302Z,21.27
2022-10-22T01:58:33.348Z,21.29
2022-10-22T01:58:43.403Z,21.27
2022-10-22T01:58:53.447Z,21.27
2022-10-22T01:59:03.494Z,21.29
2022-10-22T01:59:13.541Z,21.27
2022-10-22T01:59:23.589Z,21.29
2022-10-22T01:59:33.635Z,21.27
2022-10-22T01:59:43.678Z,21.30
2022-10-22T01:59:53.722Z,21.29
2022-10-22T02:00:03.771Z,21.30
2022-10-22T02:00:13.816Z,21.29
2022-10-22T02:00:23.851Z,21.29
2022-10-22T02:00:33.926Z,21.29
2022-10-22T02:00:44.026Z,21.30
2022-10-22T02:00:54.154Z,21.27
2022-10-22T02:01:04.265Z,21.29
2022-10-22T02:01:14.252Z,21.29
2022-10-22T02:01:24.212Z,21.27
2022-10-22T02:01:34.253Z,21.27
2022-10-22T02:01:44.291Z,21.27
2022-10-22T02:01:54.338Z,21.27
2022-10-22T02:02:04.365Z,21.29
2022-10-22T02:02:14.410Z,21.29
2022-10-22T02:02:24.448Z,21.29
2022-10-22T02:02:34.520Z,21.29
2022-10-22T02:02:54.592Z,21.29
2022-10-22T02:03:04.718Z,21.30
2022-10-22T02:03:17.416Z,21.29
2022-10-22T02:03:24.887Z,21.27
2022-10-22T02:03:34.930Z,21.27
2022-10-22T02:03:54.985Z,21.27
2022-10-22T02:04:05.029Z,21.27
2022-10-22T02:04:15.068Z,21.27
2022-10-22T02:04:25.103Z,21.27
2022-10-22T02:04:35.148Z,21.26
2022-10-22T02:04:55.192Z,21.27
2022-10-22T02:05:05.236Z,21.27
2022-10-22T02:05:15.285Z,21.29
2022-10-22T02:05:25.327Z,21.27
2022-10-22T02:05:35.426Z,21.27
2022-10-22T02:05:55.457Z,21.27
2022-10-22T02:06:05.514Z,21.26
2022-10-22T02:06:15.550Z,21.29
2022-10-22T02:06:25.594Z,21.29
2022-10-22T02:06:35.655Z,21.27
2022-10-22T02:06:55.715Z,21.27
2022-10-22T02:07:05.755Z,21.29
2022-10-22T02:07:15.783Z,21.30
2022-10-22T02:07:25.831Z,21.30
2022-10-22T02:07:35.870Z,21.29
2022-10-22T02:07:55.919Z,21.27
2022-10-22T02:08:05.981Z,21.29
2022-10-22T02:08:16.018Z,21.29
2022-10-22T02:08:26.085Z,21.27
2022-10-22T02:08:36.158Z,21.27
2022-10-22T02:08:56.281Z,21.26
2022-10-22T02:09:06.479Z,21.26
2022-10-22T02:09:16.455Z,21.27
2022-10-22T02:09:26.464Z,21.26
2022-10-22T02:09:36.506Z,21.24
2022-10-22T02:09:56.562Z,21.27
2022-10-22T02:10:06.613Z,21.27
2022-10-22T02:10:16.656Z,21.27
2022-10-22T02:10:26.708Z,21.27
2022-10-22T02:10:36.741Z,21.27
2022-10-22T02:10:56.793Z,21.27
2022-10-22T02:11:06.829Z,21.29
2022-10-22T02:11:16.876Z,21.26
2022-10-22T02:11:26.909Z,21.27
2022-10-22T02:11:36.956Z,21.27
2022-10-22T02:11:56.998Z,21.29
2022-10-22T02:12:07.113Z,21.30
2022-10-22T02:12:17.150Z,21.29
2022-10-22T02:12:27.198Z,21.29
2022-10-22T02:12:37.270Z,21.29
2022-10-22T02:12:57.259Z,21.29
2022-10-22T02:13:07.302Z,21.27
2022-10-22T02:13:17.350Z,21.29
2022-10-22T02:13:27.410Z,21.26
2022-10-22T02:13:37.451Z,21.29
2022-10-22T02:13:57.570Z,21.27
2022-10-22T02:14:07.608Z,21.27
2022-10-22T02:14:17.637Z,21.30
2022-10-22T02:14:27.682Z,21.27
2022-10-22T02:14:37.719Z,21.29
2022-10-22T02:14:57.777Z,21.30
2022-10-22T02:15:07.837Z,21.27
2022-10-22T02:15:17.874Z,21.27
2022-10-22T02:15:27.938Z,21.27
2022-10-22T02:15:37.970Z,21.27
2022-10-22T02:15:58.029Z,21.24
2022-10-22T02:16:08.092Z,21.26
2022-10-22T02:16:18.120Z,21.27
2022-10-22T02:16:28.167Z,21.26
2022-10-22T02:16:38.190Z,21.27
2022-10-22T02:16:58.247Z,21.24
2022-10-22T02:17:08.282Z,21.24
2022-10-22T02:17:18.361Z,21.24
2022-10-22T02:17:28.409Z,21.24
2022-10-22T02:17:38.441Z,21.23
2022-10-22T02:17:58.500Z,21.24
2022-10-22T02:18:08.540Z,21.24
2022-10-22T02:18:18.586Z,21.23
2022-10-22T02:18:28.625Z,21.23
2022-10-22T02:18:39.469Z,21.23
2022-10-22T02:18:58.760Z,21.23
2022-10-22T02:19:08.800Z,21.24
2022-10-22T02:19:18.881Z,21.23
2022-10-22T02:19:28.920Z,21.23
2022-10-22T02:19:38.971Z,21.24
2022-10-22T02:19:59.021Z,21.24
2022-10-22T02:20:09.076Z,21.24
2022-10-22T02:20:19.118Z,21.23
2022-10-22T02:20:29.185Z,21.23
2022-10-22T02:20:39.224Z,21.23
2022-10-22T02:20:59.330Z,21.23
2022-10-22T02:21:09.395Z,21.20
2022-10-22T02:21:19.439Z,21.21
2022-10-22T02:21:29.463Z,21.21
2022-10-22T02:21:39.501Z,21.21
2022-10-22T02:21:59.558Z,21.21
2022-10-22T02:22:09.631Z,21.20
2022-10-22T02:22:19.674Z,21.20
2022-10-22T02:22:29.730Z,21.21
2022-10-22T02:22:40.042Z,21.19
2022-10-22T02:22:59.844Z,21.19
2022-10-22T02:23:09.873Z,21.19
2022-10-22T02:23:19.906Z,21.19
2022-10-22T02:23:29.953Z,21.19
2022-10-22T02:23:39.999Z,21.19
2022-10-22T02:24:00.061Z,21.20
2022-10-22T02:24:10.093Z,21.19
2022-10-22T02:24:20.138Z,21.20
2022-10-22T02:24:30.193Z,21.20
2022-10-22T02:24:40.227Z,21.20
2022-10-22T02:25:00.402Z,21.21
2022-10-22T02:25:10.449Z,21.20
2022-10-22T02:25:20.491Z,21.20
2022-10-22T02:25:30.529Z,21.20
2022-10-22T02:25:40.573Z,21.20
2022-10-22T02:26:00.631Z,21.19
2022-10-22T02:26:10.682Z,21.19
2022-10-22T02:26:20.756Z,21.20
2022-10-22T02:26:30.806Z,21.19
2022-10-22T02:26:40.841Z,21.19